Time;durP1;ratioP1;P1;durP2;ratioP2;P2;SDS_P1;SDS_P2;PMS_P1;PMS_P2;Temp;Humidity;BMP_temperature;BMP_pressure;BME280_temperature;BME280_humidity;BME280_pressure;Samples;Min_cycle;Max_cycle;Signal;HPM_P1;HPM_P2
2021/01/24 00:00:45;;;;;;;34.88;22.13;;;7.40;93.60;;;;;;5088213;28;20036;-67
2021/01/24 00:03:10;;;;;;;;;;;7.50;93.60;;;;;;5088813;28;20024;-67
2021/01/24 00:05:36;;;;;;;35.45;24.02;;;7.50;93.30;;;;;;5088035;28;20018;-66
2021/01/24 00:08:01;;;;;;;;;;;7.50;93.20;;;;;;5088551;28;20052;-66
2021/01/24 00:10:27;;;;;;;39.65;25.02;;;7.50;93.30;;;;;;5088143;28;20337;-66
2021/01/24 00:12:53;;;;;;;;;;;7.40;93.40;;;;;;5088543;28;20028;-66
2021/01/24 00:15:18;;;;;;;40.22;25.55;;;7.40;93.50;;;;;;5088132;28;19973;-66
2021/01/24 00:17:44;;;;;;;39.95;27.15;;;7.30;93.60;;;;;;5087924;28;20111;-67
2021/01/24 00:20:11;;;;;;;;;;;7.20;93.80;;;;;;5088469;28;20028;-67
2021/01/24 00:22:37;;;;;;;39.30;27.27;;;7.20;93.90;;;;;;5087932;28;19912;-67
2021/01/24 00:25:04;;;;;;;43.25;29.38;;;7.30;93.90;;;;;;5087973;28;20020;-68
2021/01/24 00:27:30;;;;;;;56.85;35.78;;;7.30;93.70;;;;;;5090099;28;20105;-66
2021/01/24 00:29:55;;;;;;;;;;;7.30;93.80;;;;;;5091998;28;20024;-67
2021/01/24 00:32:21;;;;;;;52.97;31.48;;;7.20;93.90;;;;;;5091602;28;19961;-67
2021/01/24 00:34:46;;;;;;;49.40;29.15;;;7.20;93.80;;;;;;5091709;28;20034;-66
2021/01/24 00:37:13;;;;;;;52.83;34.17;;;7.20;93.90;;;;;;5091595;28;20028;-66
2021/01/24 00:39:38;;;;;;;48.08;33.25;;;7.20;94.00;;;;;;5091564;28;20055;-67
2021/01/24 00:42:04;;;;;;;;;;;7.10;94.10;;;;;;5091895;28;20063;-66
2021/01/24 00:44:30;;;;;;;59.50;38.42;;;7.10;94.20;;;;;;5091574;28;20300;-66
2021/01/24 00:46:56;;;;;;;45.40;28.92;;;7.00;94.30;;;;;;5091481;28;20040;-65
2021/01/24 00:49:21;;;;;;;;;;;7.20;94.10;;;;;;5073942;28;20511;-66
2021/01/24 00:51:47;;;;;;;42.15;26.80;;;7.30;93.80;;;;;;5091399;28;19915;-65
2021/01/24 00:54:12;;;;;;;;;;;7.20;93.70;;;;;;5091841;28;20057;-66
2021/01/24 00:56:38;;;;;;;43.28;28.17;;;7.30;93.60;;;;;;5091403;28;19904;-66
2021/01/24 00:59:03;;;;;;;;;;;7.10;93.70;;;;;;5091563;28;20028;-66
2021/01/24 01:01:29;;;;;;;37.20;25.27;;;7.10;93.80;;;;;;5091224;28;19908;-66
2021/01/24 01:03:54;;;;;;;;;;;7.10;93.80;;;;;;5091874;28;20027;-66
2021/01/24 01:06:20;;;;;;;41.67;25.77;;;7.10;93.80;;;;;;5091175;28;19916;-66
2021/01/24 01:08:45;;;;;;;;;;;7.00;94.00;;;;;;5091548;28;20077;-66
2021/01/24 01:11:11;;;;;;;36.70;25.65;;;7.00;94.00;;;;;;5090983;28;19953;-66
2021/01/24 01:13:36;;;;;;;;;;;7.00;94.10;;;;;;5091660;28;20657;-66
2021/01/24 01:16:03;;;;;;;41.03;27.27;;;6.90;94.10;;;;;;5090865;28;19947;-66
2021/01/24 01:18:31;;;;;;;42.17;29.40;;;6.90;94.30;;;;;;5090889;28;20024;-66
2021/01/24 01:20:57;;;;;;;40.15;28.08;;;6.80;94.40;;;;;;5090702;28;20073;-66
2021/01/24 01:23:23;;;;;;;40.33;27.77;;;6.70;94.50;;;;;;5072451;28;20031;-65
2021/01/24 01:25:55;;;;;;;;;;;6.70;94.60;;;;;;5085456;28;20090;-65
2021/01/24 01:28:21;;;;;;;34.63;25.02;;;6.70;94.60;;;;;;5100936;28;19927;-65
2021/01/24 01:30:47;;;;;;;35.47;24.88;;;6.70;94.70;;;;;;5110836;28;20109;-66
2021/01/24 01:33:14;;;;;;;;;;;6.60;94.80;;;;;;5111606;28;20043;-66
2021/01/24 01:35:39;;;;;;;36.33;24.57;;;6.60;94.80;;;;;;5110783;28;19903;-67
2021/01/24 01:38:05;;;;;;;;;;;6.60;94.90;;;;;;5092910;28;20043;-67
2021/01/24 01:40:31;;;;;;;39.95;27.38;;;6.60;94.90;;;;;;5110933;28;19903;-67
2021/01/24 01:42:57;;;;;;;;;;;6.60;95.00;;;;;;5111382;28;20450;-67
2021/01/24 01:45:22;;;;;;;38.22;25.58;;;6.60;95.00;;;;;;5092450;28;19907;-66
2021/01/24 01:47:48;;;;;;;;;;;6.70;95.00;;;;;;5110988;28;20044;-66
2021/01/24 01:50:17;;;;;;;37.83;26.17;;;6.70;94.90;;;;;;5110553;28;20371;-65
2021/01/24 01:52:43;;;;;;;43.05;29.27;;;6.70;94.80;;;;;;5092320;28;20026;-66
2021/01/24 01:55:09;;;;;;;;;;;6.80;94.50;;;;;;5110628;28;20500;-67
2021/01/24 01:57:34;;;;;;;45.33;27.13;;;6.80;94.30;;;;;;5110418;28;20014;-67
2021/01/24 02:00:00;;;;;;;;;;;7.00;94.20;;;;;;5110751;28;20067;-68
2021/01/24 02:03:00;;;;;;;40.83;26.02;;;7.00;93.90;;;;;;5091992;28;19907;-67
2021/01/24 02:05:34;;;;;;;40.45;28.50;;;7.00;93.90;;;;;;5110273;28;20034;-67
2021/01/24 02:08:27;;;;;;;39.63;28.45;;;7.00;93.90;;;;;;5091899;28;20039;-67
2021/01/24 02:11:00;;;;;;;44.15;29.45;;;7.00;93.90;;;;;;5109887;28;20035;-67
2021/01/24 02:14:05;;;;;;;45.70;31.75;;;7.00;93.60;;;;;;5091828;28;20015;-67
2021/01/24 02:16:33;;;;;;;45.47;30.42;;;6.90;93.80;;;;;;5092081;28;20036;-66
2021/01/24 02:19:02;;;;;;;44.35;28.45;;;6.90;93.90;;;;;;5109981;28;20381;-67
2021/01/24 02:21:30;;;;;;;47.10;32.38;;;6.90;93.90;;;;;;5109951;28;20080;-66
2021/01/24 02:24:00;;;;;;;40.95;29.08;;;6.90;93.60;;;;;;5109807;28;20038;-67
2021/01/24 02:26:50;;;;;;;51.40;34.50;;;7.00;93.70;;;;;;5109779;28;20035;-66
2021/01/24 02:29:31;;;;;;;49.83;33.72;;;6.90;93.60;;;;;;5109753;28;20059;-67
2021/01/24 02:32:00;;;;;;;50.08;32.45;;;6.80;93.90;;;;;;5109760;28;20032;-66
2021/01/24 02:34:30;;;;;;;55.55;36.25;;;6.80;94.00;;;;;;5109789;28;20559;-67
2021/01/24 02:36:58;;;;;;;50.78;35.53;;;6.80;93.80;;;;;;5109574;28;20026;-67
2021/01/24 02:39:24;;;;;;;52.90;35.78;;;6.70;93.90;;;;;;5109573;28;20035;-67
2021/01/24 02:41:50;;;;;;;62.15;38.90;;;6.60;94.00;;;;;;5109553;28;20495;-67
2021/01/24 02:44:16;;;;;;;;;;;6.50;94.30;;;;;;5110001;28;20027;-66
2021/01/24 02:46:43;;;;;;;72.07;43.85;;;6.50;94.50;;;;;;5109487;28;19916;-66
2021/01/24 02:49:10;;;;;;;64.00;42.30;;;6.50;94.60;;;;;;5108682;28;20388;-66
2021/01/24 02:51:37;;;;;;;61.47;40.15;;;6.50;94.50;;;;;;5109521;28;20515;-65
2021/01/24 02:54:04;;;;;;;61.22;40.67;;;6.50;94.50;;;;;;5109417;28;20019;-65
2021/01/24 02:56:29;;;;;;;61.15;39.67;;;6.50;94.40;;;;;;5109356;28;20027;-66
2021/01/24 02:58:56;;;;;;;;;;;6.40;94.40;;;;;;5109758;28;20035;-66
2021/01/24 03:01:21;;;;;;;54.50;37.58;;;6.50;94.50;;;;;;5090959;28;20360;-66
2021/01/24 03:03:47;;;;;;;;;;;6.40;94.50;;;;;;5109610;28;20115;-66
2021/01/24 03:06:13;;;;;;;53.78;37.75;;;6.40;94.40;;;;;;5109035;28;20536;-66
2021/01/24 03:08:39;;;;;;;;;;;6.50;94.30;;;;;;5109640;28;20392;-66
2021/01/24 03:11:09;;;;;;;60.28;37.65;;;6.50;94.30;;;;;;5109164;28;19908;-66
2021/01/24 03:13:42;;;;;;;57.92;38.67;;;6.50;94.00;;;;;;5109191;28;20035;-66
2021/01/24 03:16:09;;;;;;;54.03;38.00;;;6.70;93.40;;;;;;5109064;28;20496;-66
2021/01/24 03:18:38;;;;;;;51.88;35.92;;;6.70;93.40;;;;;;5108856;28;20027;-67
2021/01/24 03:21:05;;;;;;;56.72;38.10;;;6.70;93.30;;;;;;5109012;28;20051;-66
2021/01/24 03:23:32;;;;;;;54.45;35.25;;;6.60;93.60;;;;;;5108791;28;20047;-66
2021/01/24 03:25:58;;;;;;;55.47;37.00;;;6.50;93.80;;;;;;5108317;28;20043;-67
2021/01/24 03:28:24;;;;;;;52.45;34.40;;;6.50;93.80;;;;;;5090290;28;20047;-66
2021/01/24 03:30:50;;;;;;;;;;;6.50;93.80;;;;;;5109235;28;20434;-66
2021/01/24 03:33:16;;;;;;;63.22;39.33;;;6.40;94.00;;;;;;5108756;28;19954;-66
2021/01/24 03:35:42;;;;;;;72.63;45.30;;;6.40;94.20;;;;;;5090209;28;20027;-66
2021/01/24 03:38:07;;;;;;;;;;;6.40;94.30;;;;;;5109263;28;20032;-66
2021/01/24 03:40:33;;;;;;;64.10;37.65;;;6.40;94.40;;;;;;5108813;28;19903;-67
2021/01/24 03:42:58;;;;;;;;;;;6.40;94.40;;;;;;5109151;28;20136;-66
2021/01/24 03:45:24;;;;;;;56.88;37.60;;;6.40;94.10;;;;;;5108693;28;19904;-66
2021/01/24 03:47:50;;;;;;;;;;;6.50;94.00;;;;;;5108924;28;20067;-66
2021/01/24 03:50:16;;;;;;;53.88;34.55;;;6.50;93.80;;;;;;5108591;28;19954;-66
2021/01/24 03:52:41;;;;;;;;;;;6.40;93.80;;;;;;5090830;28;20122;-64
2021/01/24 03:55:07;;;;;;;57.28;37.47;;;6.40;93.90;;;;;;5090351;28;19912;-66
2021/01/24 03:57:33;;;;;;;;;;;6.40;94.00;;;;;;5109100;28;20027;-67
2021/01/24 03:59:58;;;;;;;59.88;39.08;;;6.30;94.10;;;;;;5108512;28;20431;-66
2021/01/24 04:02:24;;;;;;;;;;;6.20;94.20;;;;;;5112978;28;20024;-67
2021/01/24 04:04:50;;;;;;;70.15;39.17;;;6.20;94.30;;;;;;5112687;28;19908;-67
2021/01/24 04:07:16;;;;;;;;;;;6.20;94.40;;;;;;5113040;28;20055;-66
2021/01/24 04:09:42;;;;;;;61.40;38.30;;;6.20;94.60;;;;;;5112267;28;20378;-66
2021/01/24 04:12:08;;;;;;;;;;;6.20;94.70;;;;;;5113018;28;20027;-66
2021/01/24 04:14:34;;;;;;;59.87;36.90;;;6.20;94.60;;;;;;5112529;28;19910;-66
2021/01/24 04:17:00;;;;;;;57.72;37.88;;;6.20;94.60;;;;;;5112377;28;20084;-66
2021/01/24 04:19:26;;;;;;;;;;;6.20;94.70;;;;;;5112780;28;20024;-67
2021/01/24 04:21:51;;;;;;;56.13;36.00;;;6.10;94.70;;;;;;5112234;28;19912;-66
2021/01/24 04:24:17;;;;;;;;;;;6.20;94.80;;;;;;5112808;28;20032;-67
2021/01/24 04:26:42;;;;;;;64.10;38.05;;;6.20;94.80;;;;;;5112203;28;19992;-66
2021/01/24 04:29:11;;;;;;;;;;;6.20;94.80;;;;;;5094534;28;20583;-66
2021/01/24 04:31:36;;;;;;;57.63;37.15;;;6.20;94.70;;;;;;5093827;28;20410;-67
2021/01/24 04:34:02;;;;;;;;;;;6.20;94.60;;;;;;5112417;28;20057;-67
2021/01/24 04:36:28;;;;;;;146.05;70.05;;;6.20;94.60;;;;;;5112265;28;19911;-67
2021/01/24 04:38:53;;;;;;;;;;;6.20;94.40;;;;;;5112878;28;20027;-66
2021/01/24 04:41:19;;;;;;;80.93;44.55;;;6.20;94.20;;;;;;5112329;28;19953;-67
2021/01/24 04:43:45;;;;;;;;;;;6.30;94.10;;;;;;5112370;28;20031;-66
2021/01/24 04:46:11;;;;;;;53.17;33.25;;;6.30;94.00;;;;;;5112098;28;19911;-67
2021/01/24 04:48:36;;;;;;;;;;;6.30;94.00;;;;;;5112557;28;20038;-67
2021/01/24 04:51:03;;;;;;;45.03;28.23;;;6.30;94.00;;;;;;5093777;28;20360;-66
2021/01/24 04:53:30;;;;;;;42.88;26.73;;;6.30;93.90;;;;;;5111460;28;20479;-67
2021/01/24 04:55:56;;;;;;;43.03;25.75;;;6.20;93.90;;;;;;5111710;28;20502;-66
2021/01/24 04:58:23;;;;;;;;;;;6.30;93.60;;;;;;5112107;28;20468;-67
2021/01/24 05:00:48;;;;;;;35.63;22.13;;;6.20;93.80;;;;;;5111626;28;20395;-66
2021/01/24 05:03:14;;;;;;;;;;;6.20;94.00;;;;;;5112128;28;20283;-67
2021/01/24 05:05:39;;;;;;;34.92;21.85;;;6.20;94.20;;;;;;5111334;28;19908;-67
2021/01/24 05:08:06;;;;;;;;;;;6.10;94.30;;;;;;5111804;28;20024;-66
2021/01/24 05:10:32;;;;;;;30.93;22.10;;;6.10;94.40;;;;;;5111332;28;19956;-66
2021/01/24 05:12:57;;;;;;;;;;;6.10;94.40;;;;;;5110860;28;20844;-66
2021/01/24 05:15:25;;;;;;;41.50;23.85;;;6.10;94.50;;;;;;5111282;28;19904;-67
2021/01/24 05:17:56;;;;;;;32.63;22.77;;;6.00;94.60;;;;;;5110909;28;20040;-66
2021/01/24 05:20:27;;;;;;;30.70;22.63;;;6.00;94.60;;;;;;5111107;28;20067;-66
2021/01/24 05:22:54;;;;;;;32.65;21.00;;;6.00;94.70;;;;;;5111226;28;20034;-66
2021/01/24 05:25:21;;;;;;;29.55;18.83;;;6.00;94.70;;;;;;5111156;28;20100;-67
2021/01/24 05:27:47;;;;;;;35.17;19.05;;;6.00;95.00;;;;;;5110849;28;20134;-66
2021/01/24 05:30:19;;;;;;;30.67;20.58;;;6.00;94.70;;;;;;5092811;28;20073;-66
2021/01/24 05:32:45;;;;;;;35.83;22.40;;;6.00;95.00;;;;;;5111063;28;20024;-66
2021/01/24 05:35:11;;;;;;;;;;;6.00;94.80;;;;;;5111610;28;20471;-66
2021/01/24 05:37:38;;;;;;;32.42;22.33;;;6.00;94.70;;;;;;5111115;28;19908;-67
2021/01/24 05:40:06;;;;;;;34.15;20.60;;;6.00;94.80;;;;;;5092606;28;20030;-66
2021/01/24 05:42:34;;;;;;;34.40;22.48;;;5.90;94.70;;;;;;5110835;28;20043;-66
2021/01/24 05:45:00;;;;;;;36.05;22.45;;;5.90;94.80;;;;;;5110851;28;20073;-66
2021/01/24 05:47:26;;;;;;;;;;;5.90;94.70;;;;;;5111053;28;20035;-67
2021/01/24 05:49:52;;;;;;;30.77;20.17;;;5.90;94.70;;;;;;5110454;28;19908;-67
2021/01/24 05:52:19;;;;;;;;;;;5.90;94.70;;;;;;5111106;28;20034;-66
2021/01/24 05:54:46;;;;;;;;;;;5.80;94.70;;;;;;5110886;28;19908;-66
2021/01/24 05:57:14;;;;;;;37.13;22.73;;;5.80;94.60;;;;;;5110495;28;19951;-67
2021/01/24 05:59:57;;;;;;;37.28;21.65;;;5.70;94.90;;;;;;5091543;28;20130;-66
2021/01/24 06:02:24;;;;;;;42.03;25.08;;;5.70;94.60;;;;;;5109927;28;20130;-66
2021/01/24 06:04:50;;;;;;;42.80;24.35;;;5.70;94.70;;;;;;5110319;28;20078;-65
2021/01/24 06:07:16;;;;;;;;;;;5.60;94.60;;;;;;5110683;28;20488;-65
2021/01/24 06:09:43;;;;;;;46.15;27.08;;;5.50;94.70;;;;;;5109968;28;19908;-66
2021/01/24 06:12:10;;;;;;;45.58;27.13;;;5.50;95.00;;;;;;5110191;28;20035;-66
2021/01/24 06:14:38;;;;;;;40.72;25.15;;;5.50;94.90;;;;;;5110199;28;20483;-66
2021/01/24 06:17:17;;;;;;;38.33;24.15;;;5.50;95.20;;;;;;5109857;28;20026;-67
2021/01/24 06:19:48;;;;;;;39.05;24.52;;;5.50;94.90;;;;;;5109964;28;20404;-66
2021/01/24 06:22:17;;;;;;;36.58;22.85;;;5.50;94.80;;;;;;5110132;28;20102;-66
2021/01/24 06:24:52;;;;;;;38.80;23.65;;;5.50;94.90;;;;;;5110108;28;20015;-66
2021/01/24 06:27:24;;;;;;;39.70;24.70;;;5.50;94.90;;;;;;5091476;28;20046;-66
2021/01/24 06:29:53;;;;;;;96.97;59.35;;;5.50;94.90;;;;;;5091468;28;20042;-66
2021/01/24 06:32:27;;;;;;;158.77;94.35;;;5.50;94.70;;;;;;5109697;28;20575;-66
2021/01/24 06:34:54;;;;;;;40.78;25.88;;;5.60;94.50;;;;;;5109725;28;20400;-66
2021/01/24 06:37:21;;;;;;;45.83;27.73;;;5.50;94.40;;;;;;5109761;28;20028;-67
2021/01/24 06:39:55;;;;;;;61.00;35.65;;;5.60;94.30;;;;;;5109369;28;20027;-66
2021/01/24 06:42:43;;;;;;;46.63;26.40;;;5.50;94.30;;;;;;5091595;28;20035;-67
2021/01/24 06:45:26;;;;;;;38.90;23.40;;;5.60;94.30;;;;;;5109461;28;20480;-67
2021/01/24 06:48:02;;;;;;;34.63;23.58;;;5.60;94.40;;;;;;5109230;28;20130;-67
2021/01/24 06:50:41;;;;;;;33.47;20.10;;;5.70;94.60;;;;;;5090911;28;20027;-67
2021/01/24 06:53:20;;;;;;;42.33;24.58;;;5.80;94.10;;;;;;5109451;28;21072;-67
2021/01/24 06:55:52;;;;;;;47.50;30.40;;;5.90;93.80;;;;;;5109355;28;20558;-67
2021/01/24 06:58:22;;;;;;;44.05;28.23;;;5.90;93.50;;;;;;5109319;28;20122;-68
2021/01/24 07:00:48;;;;;;;32.63;21.00;;;5.90;93.40;;;;;;5091049;28;20058;-67
2021/01/24 07:03:15;;;;;;;;;;;5.90;93.50;;;;;;5109749;28;20028;-67
2021/01/24 07:05:41;;;;;;;35.13;20.67;;;5.90;93.10;;;;;;5109595;28;19915;-66
2021/01/24 07:08:26;;;;;;;;;;;5.90;93.00;;;;;;5091563;28;20043;-67
2021/01/24 07:10:52;;;;;;;38.22;23.10;;;5.80;93.00;;;;;;5090489;28;19915;-67
2021/01/24 07:13:27;;;;;;;;;;;5.80;93.20;;;;;;5091301;28;20023;-67
2021/01/24 07:15:57;;;;;;;35.38;21.02;;;5.80;92.80;;;;;;5108914;28;20004;-67
2021/01/24 07:18:23;;;;;;;33.63;22.00;;;5.80;92.80;;;;;;5108820;28;20477;-67
2021/01/24 07:20:52;;;;;;;38.65;23.48;;;5.70;93.00;;;;;;5090479;28;20586;-67
2021/01/24 07:23:18;;;;;;;29.55;21.90;;;5.70;93.10;;;;;;5090289;28;20031;-68
2021/01/24 07:25:47;;;;;;;;;;;5.70;93.10;;;;;;5109136;28;20026;-67
2021/01/24 07:28:14;;;;;;;31.77;20.77;;;5.60;93.40;;;;;;5108735;28;20418;-67
2021/01/24 07:30:40;;;;;;;29.90;18.73;;;5.60;93.60;;;;;;5108791;28;20631;-66
2021/01/24 07:33:08;;;;;;;30.33;19.23;;;5.70;93.50;;;;;;5108541;28;20036;-67
2021/01/24 07:35:37;;;;;;;25.17;16.63;;;5.70;93.40;;;;;;5107964;28;20440;-67
2021/01/24 07:38:03;;;;;;;26.50;15.88;;;5.70;93.30;;;;;;5108600;28;20091;-66
2021/01/24 07:40:29;;;;;;;25.67;14.23;;;5.70;93.40;;;;;;5108827;28;20024;-66
2021/01/24 07:42:57;;;;;;;23.45;14.55;;;5.70;93.10;;;;;;5090284;28;20129;-66
2021/01/24 07:45:26;;;;;;;33.25;20.45;;;5.70;93.00;;;;;;5108688;28;20026;-66
2021/01/24 07:47:53;;;;;;;34.60;18.55;;;5.70;93.00;;;;;;5108585;28;20054;-67
2021/01/24 07:50:18;;;;;;;28.50;17.17;;;5.70;92.90;;;;;;5108558;28;20019;-66
2021/01/24 07:52:44;;;;;;;;;;;5.80;92.90;;;;;;5109110;28;20032;-66
2021/01/24 07:55:11;;;;;;;24.58;16.35;;;5.80;92.70;;;;;;5090658;28;19907;-66
2021/01/24 07:57:40;;;;;;;26.50;17.55;;;5.80;92.60;;;;;;5108696;28;20551;-67
2021/01/24 08:00:06;;;;;;;26.17;15.50;;;5.80;92.50;;;;;;5108432;28;20484;-66
2021/01/24 08:02:32;;;;;;;27.23;15.65;;;5.90;92.50;;;;;;5108212;28;20072;-67
2021/01/24 08:05:00;;;;;;;;;;;5.80;92.50;;;;;;5108998;28;20028;-66
2021/01/24 08:07:29;;;;;;;28.52;16.33;;;5.90;92.40;;;;;;5090373;28;19919;-67
2021/01/24 08:12:41;;;;;;;27.63;15.73;;;6.00;92.20;;;;;;5108772;28;20078;-66
2021/01/24 08:15:06;;;;;;;;;;;6.00;92.10;;;;;;5108975;28;20054;-69
2021/01/24 08:17:34;;;;;;;32.40;19.30;;;6.00;92.20;;;;;;5108612;28;19907;-66
2021/01/24 08:20:00;;;;;;;29.52;17.75;;;6.10;92.00;;;;;;5108239;28;20030;-65
2021/01/24 08:22:26;;;;;;;;;;;6.20;91.60;;;;;;5109071;28;20036;-67
2021/01/24 08:24:54;;;;;;;29.52;18.10;;;6.20;91.70;;;;;;5108450;28;20022;-66
2021/01/24 08:27:20;;;;;;;23.75;14.90;;;6.20;91.60;;;;;;5108166;28;20024;-66
2021/01/24 08:29:45;;;;;;;;;;;6.20;91.50;;;;;;5108626;28;20050;-67
2021/01/24 08:32:11;;;;;;;35.33;20.35;;;6.30;91.30;;;;;;5108342;28;19907;-66
2021/01/24 08:34:37;;;;;;;;;;;6.30;91.20;;;;;;5108606;28;20085;-65
2021/01/24 08:37:05;;;;;;;26.35;14.68;;;6.40;90.90;;;;;;5108123;28;20368;-65
2021/01/24 08:39:31;;;;;;;22.42;13.27;;;6.40;91.00;;;;;;5108144;28;20024;-67
2021/01/24 08:41:57;;;;;;;18.70;12.27;;;6.50;90.60;;;;;;5108104;28;20063;-67
2021/01/24 08:44:23;;;;;;;;;;;6.60;90.50;;;;;;5108582;28;20055;-66
2021/01/24 08:47:00;;;;;;;23.00;10.40;;;6.70;90.40;;;;;;5108110;28;19919;-66
2021/01/24 08:49:28;;;;;;;14.82;9.45;;;6.80;90.10;;;;;;5112089;28;20388;-67
2021/01/24 08:51:53;;;;;;;17.63;9.95;;;6.90;89.70;;;;;;5111733;28;20488;-66
2021/01/24 08:54:19;;;;;;;;;;;6.90;88.60;;;;;;5093936;28;20030;-67
2021/01/24 08:56:44;;;;;;;16.48;9.38;;;6.80;88.80;;;;;;5111676;28;19907;-66
2021/01/24 08:59:19;;;;;;;16.20;8.45;;;6.70;89.40;;;;;;5076624;28;20391;-67
2021/01/24 09:01:46;;;;;;;20.52;11.00;;;6.60;90.00;;;;;;5093088;28;20028;-67
2021/01/24 09:04:23;;;;;;;17.33;9.55;;;6.50;90.20;;;;;;5111536;28;20484;-71
2021/01/24 09:07:13;;;;;;;20.17;10.90;;;6.40;90.40;;;;;;5111377;28;20061;-69
2021/01/24 09:09:41;;;;;;;17.65;9.65;;;6.30;90.70;;;;;;5111317;28;20135;-67
2021/01/24 09:12:09;;;;;;;17.90;9.45;;;6.30;90.90;;;;;;5111412;28;20036;-67
2021/01/24 09:14:35;;;;;;;17.95;9.93;;;6.30;91.10;;;;;;5111473;28;20028;-67
2021/01/24 09:17:02;;;;;;;;;;;6.20;91.10;;;;;;5111833;28;20096;-67
2021/01/24 09:19:28;;;;;;;19.48;10.70;;;6.20;91.30;;;;;;5111379;28;19912;-68
2021/01/24 09:21:54;;;;;;;18.98;11.45;;;6.20;91.40;;;;;;5110530;28;20063;-66
2021/01/24 09:24:20;;;;;;;;;;;6.10;91.50;;;;;;5111120;28;20051;-68
2021/01/24 09:26:46;;;;;;;18.77;11.30;;;6.10;91.60;;;;;;5111127;28;20372;-68
2021/01/24 09:29:15;;;;;;;20.35;11.93;;;6.00;91.70;;;;;;5110417;28;20059;-67
2021/01/24 09:31:41;;;;;;;20.23;9.85;;;6.10;91.80;;;;;;5109731;28;20120;-67
2021/01/24 09:34:07;;;;;;;;;;;6.00;92.00;;;;;;5111232;28;20027;-66
2021/01/24 09:36:32;;;;;;;16.98;9.77;;;6.00;92.10;;;;;;5092341;28;19908;-67
2021/01/24 09:38:58;;;;;;;;;;;6.00;92.10;;;;;;5111065;28;20111;-66
2021/01/24 09:41:24;;;;;;;21.33;10.70;;;5.90;92.30;;;;;;5110859;28;19907;-66
2021/01/24 09:43:49;;;;;;;;;;;6.00;92.40;;;;;;5111075;28;20055;-66
2021/01/24 09:46:15;;;;;;;21.17;11.80;;;5.90;92.50;;;;;;5110572;28;19908;-65
2021/01/24 09:48:40;;;;;;;;;;;5.90;92.70;;;;;;5111065;28;20024;-65
2021/01/24 09:51:08;;;;;;;23.10;12.40;;;5.90;92.70;;;;;;5110628;28;19908;-67
2021/01/24 09:53:38;;;;;;;23.80;14.98;;;5.80;93.00;;;;;;5092186;28;20027;-66
2021/01/24 09:56:05;;;;;;;21.00;13.80;;;5.90;93.00;;;;;;5110510;28;20074;-66
2021/01/24 09:58:31;;;;;;;16.55;11.05;;;5.90;92.70;;;;;;5110135;28;20039;-67
2021/01/24 10:00:57;;;;;;;17.50;10.75;;;6.00;92.10;;;;;;5110377;28;20745;-67
2021/01/24 10:03:23;;;;;;;;;;;5.90;91.70;;;;;;5110847;28;20024;-68
2021/01/24 10:05:49;;;;;;;11.65;7.82;;;6.00;91.60;;;;;;5109857;28;19908;-65
2021/01/24 10:08:14;;;;;;;12.52;7.20;;;6.20;91.10;;;;;;5090982;28;20032;-66
2021/01/24 10:10:40;;;;;;;;;;;6.30;90.50;;;;;;5091560;28;20035;-66
2021/01/24 10:13:06;;;;;;;11.98;7.43;;;6.40;90.30;;;;;;5109902;28;19910;-66
2021/01/24 10:15:32;;;;;;;13.50;8.80;;;6.50;89.80;;;;;;5110090;28;20089;-68
2021/01/24 10:17:58;;;;;;;;;;;6.60;89.30;;;;;;5091978;28;20551;-68
2021/01/24 10:20:23;;;;;;;13.20;8.50;;;6.60;88.60;;;;;;5110018;28;19911;-68
2021/01/24 10:22:49;;;;;;;;;;;6.60;88.60;;;;;;5110499;28;20035;-67
2021/01/24 10:25:14;;;;;;;12.82;6.68;;;6.70;88.20;;;;;;5109927;28;19903;-69
2021/01/24 10:27:40;;;;;;;;;;;6.80;86.70;;;;;;5109943;28;20538;-68
2021/01/24 10:30:07;;;;;;;6.50;4.15;;;7.00;87.10;;;;;;5109749;28;19957;-67
2021/01/24 10:32:33;;;;;;;5.03;3.38;;;7.20;84.10;;;;;;5109751;28;20065;-68
2021/01/24 10:34:59;;;;;;;;;;;7.30;81.50;;;;;;5110205;28;20031;-69
2021/01/24 10:37:24;;;;;;;6.18;4.63;;;7.40;80.30;;;;;;5087655;27;19920;-67
2021/01/24 10:39:50;;;;;;;;;;;7.40;80.60;;;;;;5087658;28;20044;-68
2021/01/24 10:42:15;;;;;;;6.57;4.68;;;7.60;80.70;;;;;;5106051;28;19923;-69
2021/01/24 10:44:41;;;;;;;;;;;7.70;80.50;;;;;;5105083;28;20404;-67
2021/01/24 10:47:06;;;;;;;5.72;3.90;;;7.90;79.90;;;;;;5106995;28;19920;-66
2021/01/24 10:49:32;;;;;;;;;;;8.00;79.00;;;;;;5106187;27;20044;-67
2021/01/24 10:51:58;;;;;;;13.25;6.93;;;8.00;76.90;;;;;;5106734;28;19946;-67
2021/01/24 10:54:23;;;;;;;;;;;7.90;77.90;;;;;;5106127;27;20039;-68
2021/01/24 10:56:49;;;;;;;7.22;4.00;;;7.80;77.90;;;;;;5106406;28;19915;-67
2021/01/24 10:59:14;;;;;;;6.47;4.85;;;7.80;78.00;;;;;;5104910;28;20047;-67
2021/01/24 11:01:40;;;;;;;;;;;7.80;78.00;;;;;;5105412;28;20318;-68
2021/01/24 11:04:05;;;;;;;7.15;4.82;;;7.80;79.00;;;;;;5105851;28;19977;-68
2021/01/24 11:06:31;;;;;;;8.77;5.55;;;7.90;78.60;;;;;;5105503;27;20039;-68
2021/01/24 11:08:56;;;;;;;;;;;7.90;77.80;;;;;;5105125;28;20051;-67
2021/01/24 11:11:22;;;;;;;5.35;3.53;;;7.90;77.20;;;;;;5104714;28;20470;-68
2021/01/24 11:13:48;;;;;;;;;;;7.80;76.50;;;;;;5106978;28;20110;-68
2021/01/24 11:16:14;;;;;;;4.30;3.33;;;7.80;76.60;;;;;;5100537;27;19916;-67
2021/01/24 11:18:40;;;;;;;;;;;7.70;77.00;;;;;;5106849;28;20074;-67
2021/01/24 11:21:05;;;;;;;7.30;5.18;;;7.50;77.00;;;;;;5087925;28;19947;-68
2021/01/24 11:23:31;;;;;;;;;;;7.50;78.20;;;;;;5104932;28;20023;-66
2021/01/24 11:25:57;;;;;;;18.88;9.50;;;7.60;78.60;;;;;;5104014;28;19916;-67
2021/01/24 11:28:22;;;;;;;;;;;7.80;77.10;;;;;;5105618;28;20048;-68
2021/01/24 11:30:48;;;;;;;5.57;3.15;;;7.80;76.10;;;;;;5104302;28;19919;-67
2021/01/24 11:33:13;;;;;;;;;;;7.70;75.20;;;;;;5090739;28;20834;-67
2021/01/24 11:35:41;;;;;;;4.80;2.88;;;7.70;74.40;;;;;;5105923;28;19969;-67
2021/01/24 11:38:07;;;;;;;3.88;2.20;;;7.80;72.40;;;;;;5106644;28;20051;-67
2021/01/24 11:40:32;;;;;;;1.25;0.80;;;7.80;72.30;;;;;;5088705;28;20035;-67
2021/01/24 11:42:58;;;;;;;;;;;7.80;73.00;;;;;;5103929;28;20054;-68
2021/01/24 11:45:24;;;;;;;2.58;1.33;;;7.80;72.80;;;;;;5083694;28;19958;-67
2021/01/24 11:47:51;;;;;;;;;;;7.80;72.50;;;;;;5102519;28;20039;-67
2021/01/24 11:50:17;;;;;;;1.92;1.05;;;7.80;72.10;;;;;;5087568;28;19947;-68
2021/01/24 11:52:42;;;;;;;;;;;7.80;71.40;;;;;;5087857;28;20514;-68
2021/01/24 11:55:08;;;;;;;2.20;1.38;;;7.70;71.00;;;;;;5107441;28;20355;-68
2021/01/24 11:57:34;;;;;;;;;;;7.70;71.00;;;;;;5107052;28;20427;-69
2021/01/24 11:59:59;;;;;;;2.97;1.55;;;7.70;72.20;;;;;;5100108;28;19916;-68
2021/01/24 12:02:25;;;;;;;3.15;1.75;;;7.70;72.70;;;;;;5106121;28;20484;-68
2021/01/24 12:04:51;;;;;;;;;;;7.70;73.20;;;;;;5108826;28;20044;-68
2021/01/24 12:07:17;;;;;;;2.67;1.33;;;7.70;72.80;;;;;;5108475;28;20356;-67
2021/01/24 12:09:42;;;;;;;;;;;7.70;72.60;;;;;;5108561;28;20051;-69
2021/01/24 12:12:08;;;;;;;4.35;2.10;;;7.70;72.50;;;;;;5108421;28;20277;-67
2021/01/24 12:14:35;;;;;;;4.53;3.25;;;7.70;72.80;;;;;;5108409;28;20119;-67
2021/01/24 12:17:00;;;;;;;3.20;1.83;;;7.70;73.60;;;;;;5108417;28;20427;-69
2021/01/24 12:19:26;;;;;;;;;;;7.80;73.30;;;;;;5108717;28;20027;-68
2021/01/24 12:21:52;;;;;;;3.72;2.00;;;7.70;74.20;;;;;;5105575;27;19920;-67
2021/01/24 12:24:17;;;;;;;;;;;7.60;73.20;;;;;;5107292;28;20047;-67
2021/01/24 12:26:46;;;;;;;2.78;1.60;;;7.50;73.50;;;;;;5089973;28;19998;-67
2021/01/24 12:29:11;;;;;;;3.83;2.28;;;7.40;73.90;;;;;;5071054;28;20060;-67
2021/01/24 12:31:37;;;;;;;;;;;7.50;74.70;;;;;;5089660;28;20047;-67
2021/01/24 12:34:02;;;;;;;4.55;2.30;;;7.60;75.50;;;;;;5086991;28;19920;-69
2021/01/24 12:36:28;;;;;;;;;;;7.70;73.80;;;;;;5091030;28;20040;-68
2021/01/24 12:38:54;;;;;;;3.47;1.92;;;7.70;73.70;;;;;;5089823;28;19926;-68
2021/01/24 12:41:19;;;;;;;;;;;7.70;72.90;;;;;;5088917;28;20040;-68
2021/01/24 12:43:45;;;;;;;2.80;1.63;;;7.70;73.20;;;;;;5090625;28;19947;-68
2021/01/24 12:46:11;;;;;;;;;;;7.70;73.80;;;;;;5072733;28;20032;-68
2021/01/24 12:48:38;;;;;;;3.03;1.30;;;7.70;73.70;;;;;;5089918;28;20370;-68
2021/01/24 12:51:05;;;;;;;3.75;1.85;;;7.70;73.60;;;;;;5090327;28;20377;-68
2021/01/24 12:53:31;;;;;;;3.50;1.83;;;7.70;73.30;;;;;;5090178;27;20071;-68
2021/01/24 12:55:57;;;;;;;;;;;7.60;73.60;;;;;;5088162;28;20515;-68
2021/01/24 12:58:22;;;;;;;3.67;1.90;;;7.50;73.50;;;;;;5090235;28;19915;-67
2021/01/24 13:00:48;;;;;;;;;;;7.40;73.80;;;;;;5090655;28;20295;-69
2021/01/24 13:03:14;;;;;;;4.22;2.47;;;7.20;73.50;;;;;;5071254;28;19916;-69
2021/01/24 13:05:39;;;;;;;;;;;7.00;74.10;;;;;;5090895;28;20503;-69
2021/01/24 13:08:05;;;;;;;3.38;2.05;;;6.90;74.30;;;;;;5089941;28;19923;-68
2021/01/24 13:10:32;;;;;;;3.63;2.65;;;6.80;75.20;;;;;;5090045;28;20075;-67
2021/01/24 13:12:58;;;;;;;4.43;2.88;;;6.90;75.80;;;;;;5088881;28;20044;-68
2021/01/24 13:15:23;;;;;;;;;;;6.90;76.30;;;;;;5089420;28;20062;-68